sensor_id;sensor_type;location;lat;lon;timestamp;pressure;altitude;pressure_sealevel;temperature;humidity
61761;BME280;47664;51.660;-0.100;2022-10-24T00:01:47;98793.66;;;13.69;70.34
61761;BME280;47664;51.660;-0.100;2022-10-24T00:04:19;98791.89;;;13.43;70.67
61761;BME280;47664;51.660;-0.100;2022-10-24T00:06:51;98788.14;;;13.55;70.95
61761;BME280;47664;51.660;-0.100;2022-10-24T00:09:23;98786.68;;;13.66;70.87
61761;BME280;47664;51.660;-0.100;2022-10-24T00:11:56;98776.02;;;13.71;70.14
61761;BME280;47664;51.660;-0.100;2022-10-24T00:14:28;98771.26;;;13.42;70.52
61761;BME280;47664;51.660;-0.100;2022-10-24T00:17:00;98764.42;;;13.23;72.78
61761;BME280;47664;51.660;-0.100;2022-10-24T00:19:33;98758.23;;;12.75;73.08
61761;BME280;47664;51.660;-0.100;2022-10-24T00:22:05;98755.35;;;12.78;72.53
61761;BME280;47664;51.660;-0.100;2022-10-24T00:24:37;98745.21;;;13.48;72.19
61761;BME280;47664;51.660;-0.100;2022-10-24T00:27:09;98741.62;;;13.24;72.23
61761;BME280;47664;51.660;-0.100;2022-10-24T00:29:41;98735.24;;;13.54;71.88
61761;BME280;47664;51.660;-0.100;2022-10-24T00:32:13;98741.36;;;13.15;72.68
61761;BME280;47664;51.660;-0.100;2022-10-24T00:34:45;98733.35;;;13.08;72.08
61761;BME280;47664;51.660;-0.100;2022-10-24T00:37:17;98724.41;;;13.19;71.83
61761;BME280;47664;51.660;-0.100;2022-10-24T00:39:49;98719.99;;;13.37;71.93
61761;BME280;47664;51.660;-0.100;2022-10-24T00:42:21;98715.06;;;13.52;71.73
61761;BME280;47664;51.660;-0.100;2022-10-24T00:44:56;98702.43;;;13.03;72.78
61761;BME280;47664;51.660;-0.100;2022-10-24T00:47:29;98696.15;;;12.99;72.92
61761;BME280;47664;51.660;-0.100;2022-10-24T00:50:05;98682.60;;;12.72;73.02
61761;BME280;47664;51.660;-0.100;2022-10-24T00:52:41;98676.75;;;12.91;73.34
61761;BME280;47664;51.660;-0.100;2022-10-24T00:55:15;98669.07;;;12.76;74.31
61761;BME280;47664;51.660;-0.100;2022-10-24T00:57:49;98661.02;;;12.89;73.00
61761;BME280;47664;51.660;-0.100;2022-10-24T01:00:24;98654.35;;;12.43;73.98
61761;BME280;47664;51.660;-0.100;2022-10-24T01:02:56;98648.44;;;12.91;73.79
61761;BME280;47664;51.660;-0.100;2022-10-24T01:05:26;98644.19;;;12.46;74.34
61761;BME280;47664;51.660;-0.100;2022-10-24T01:08:04;98642.01;;;12.28;74.50
61761;BME280;47664;51.660;-0.100;2022-10-24T01:10:39;98630.49;;;12.66;74.13
61761;BME280;47664;51.660;-0.100;2022-10-24T01:13:20;98626.72;;;12.61;73.45
61761;BME280;47664;51.660;-0.100;2022-10-24T01:15:56;98626.10;;;12.65;73.73
61761;BME280;47664;51.660;-0.100;2022-10-24T01:18:31;98628.50;;;12.23;75.15
61761;BME280;47664;51.660;-0.100;2022-10-24T01:21:12;98623.12;;;12.27;75.25
61761;BME280;47664;51.660;-0.100;2022-10-24T01:23:53;98628.37;;;12.17;75.13
61761;BME280;47664;51.660;-0.100;2022-10-24T01:26:54;98643.00;;;11.88;75.43
61761;BME280;47664;51.660;-0.100;2022-10-24T01:30:03;98631.19;;;12.18;75.23
61761;BME280;47664;51.660;-0.100;2022-10-24T01:32:44;98641.24;;;11.54;76.39
61761;BME280;47664;51.660;-0.100;2022-10-24T01:35:24;98654.01;;;11.64;76.96
61761;BME280;47664;51.660;-0.100;2022-10-24T01:37:58;98655.75;;;11.68;76.98
61761;BME280;47664;51.660;-0.100;2022-10-24T01:40:34;98675.97;;;11.71;77.22
61761;BME280;47664;51.660;-0.100;2022-10-24T01:43:08;98688.18;;;11.68;76.37
61761;BME280;47664;51.660;-0.100;2022-10-24T01:45:43;98699.38;;;11.70;77.11
61761;BME280;47664;51.660;-0.100;2022-10-24T01:48:14;98708.76;;;11.69;76.72
61761;BME280;47664;51.660;-0.100;2022-10-24T01:50:50;98720.91;;;11.67;76.97
61761;BME280;47664;51.660;-0.100;2022-10-24T01:53:24;98727.48;;;12.14;76.38
61761;BME280;47664;51.660;-0.100;2022-10-24T01:55:57;98734.60;;;11.86;77.10
61761;BME280;47664;51.660;-0.100;2022-10-24T01:58:30;98742.79;;;12.08;76.45
61761;BME280;47664;51.660;-0.100;2022-10-24T02:01:04;98752.29;;;11.73;76.27
61761;BME280;47664;51.660;-0.100;2022-10-24T02:03:41;98755.41;;;11.96;75.90
61761;BME280;47664;51.660;-0.100;2022-10-24T02:06:14;98758.22;;;12.11;75.30
61761;BME280;47664;51.660;-0.100;2022-10-24T02:08:50;98764.05;;;12.14;74.76
61761;BME280;47664;51.660;-0.100;2022-10-24T02:11:23;98767.28;;;12.10;75.07
61761;BME280;47664;51.660;-0.100;2022-10-24T02:13:55;98772.79;;;12.14;75.66
61761;BME280;47664;51.660;-0.100;2022-10-24T02:16:29;98785.56;;;12.08;75.13
61761;BME280;47664;51.660;-0.100;2022-10-24T02:19:02;98793.85;;;12.21;74.97
61761;BME280;47664;51.660;-0.100;2022-10-24T02:21:34;98800.94;;;12.21;74.81
61761;BME280;47664;51.660;-0.100;2022-10-24T02:24:08;98816.64;;;11.92;75.68
61761;BME280;47664;51.660;-0.100;2022-10-24T02:26:45;98821.62;;;12.24;74.67
61761;BME280;47664;51.660;-0.100;2022-10-24T02:29:23;98833.71;;;12.21;75.18
61761;BME280;47664;51.660;-0.100;2022-10-24T02:31:58;98845.67;;;12.06;76.04
61761;BME280;47664;51.660;-0.100;2022-10-24T02:34:29;98840.08;;;12.47;75.16
61761;BME280;47664;51.660;-0.100;2022-10-24T02:37:04;98842.84;;;11.86;77.17
61761;BME280;47664;51.660;-0.100;2022-10-24T02:39:39;98852.14;;;11.48;78.55
61761;BME280;47664;51.660;-0.100;2022-10-24T02:42:13;98857.39;;;11.57;78.85
61761;BME280;47664;51.660;-0.100;2022-10-24T02:44:46;98869.59;;;11.88;78.56
61761;BME280;47664;51.660;-0.100;2022-10-24T02:47:21;98876.39;;;11.55;80.94
61761;BME280;47664;51.660;-0.100;2022-10-24T02:49:55;98889.16;;;11.69;80.36
61761;BME280;47664;51.660;-0.100;2022-10-24T02:52:28;98898.46;;;11.47;80.76
61761;BME280;47664;51.660;-0.100;2022-10-24T02:55:00;98909.24;;;11.59;80.31
61761;BME280;47664;51.660;-0.100;2022-10-24T02:57:32;98910.46;;;11.51;80.73
61761;BME280;47664;51.660;-0.100;2022-10-24T03:00:05;98926.71;;;11.74;79.94
61761;BME280;47664;51.660;-0.100;2022-10-24T03:02:37;98925.85;;;11.69;79.46
61761;BME280;47664;51.660;-0.100;2022-10-24T03:05:10;98935.77;;;11.64;81.36
61761;BME280;47664;51.660;-0.100;2022-10-24T03:07:41;98942.65;;;11.60;81.01
61761;BME280;47664;51.660;-0.100;2022-10-24T03:10:13;98946.34;;;11.28;81.52
61761;BME280;47664;51.660;-0.100;2022-10-24T03:12:46;98955.29;;;11.64;79.57
61761;BME280;47664;51.660;-0.100;2022-10-24T03:15:18;98949.76;;;11.17;79.90
61761;BME280;47664;51.660;-0.100;2022-10-24T03:17:51;98959.30;;;11.60;79.16
61761;BME280;47664;51.660;-0.100;2022-10-24T03:20:23;98967.25;;;11.63;77.85
61761;BME280;47664;51.660;-0.100;2022-10-24T03:22:55;98977.08;;;11.54;78.71
61761;BME280;47664;51.660;-0.100;2022-10-24T03:25:27;98979.69;;;11.54;78.71
61761;BME280;47664;51.660;-0.100;2022-10-24T03:27:59;98988.28;;;11.91;77.90
61761;BME280;47664;51.660;-0.100;2022-10-24T03:30:31;98998.22;;;12.08;77.20
61761;BME280;47664;51.660;-0.100;2022-10-24T03:33:03;99003.33;;;11.42;76.89
61761;BME280;47664;51.660;-0.100;2022-10-24T03:35:37;99007.28;;;11.94;76.67
61761;BME280;47664;51.660;-0.100;2022-10-24T03:38:09;99014.79;;;11.31;77.54
61761;BME280;47664;51.660;-0.100;2022-10-24T03:40:42;99025.41;;;11.72;76.55
61761;BME280;47664;51.660;-0.100;2022-10-24T03:43:14;99039.02;;;11.55;77.00
61761;BME280;47664;51.660;-0.100;2022-10-24T03:45:46;99039.88;;;11.62;77.07
61761;BME280;47664;51.660;-0.100;2022-10-24T03:48:18;99046.02;;;11.66;77.02
61761;BME280;47664;51.660;-0.100;2022-10-24T03:50:50;99051.83;;;11.86;76.05
61761;BME280;47664;51.660;-0.100;2022-10-24T03:53:22;99059.74;;;11.92;75.59
61761;BME280;47664;51.660;-0.100;2022-10-24T03:55:55;99065.66;;;11.68;75.67
61761;BME280;47664;51.660;-0.100;2022-10-24T03:58:27;99066.99;;;11.74;75.84
61761;BME280;47664;51.660;-0.100;2022-10-24T04:00:59;99066.31;;;11.68;76.05
61761;BME280;47664;51.660;-0.100;2022-10-24T04:03:32;99069.42;;;11.71;75.96
61761;BME280;47664;51.660;-0.100;2022-10-24T04:06:04;99078.38;;;11.01;76.05
61761;BME280;47664;51.660;-0.100;2022-10-24T04:08:36;99081.92;;;11.11;76.70
61761;BME280;47664;51.660;-0.100;2022-10-24T04:11:09;99088.34;;;11.58;75.93
61761;BME280;47664;51.660;-0.100;2022-10-24T04:13:41;99097.12;;;11.77;75.31
61761;BME280;47664;51.660;-0.100;2022-10-24T04:16:13;99104.57;;;11.41;76.13
61761;BME280;47664;51.660;-0.100;2022-10-24T04:18:45;99110.45;;;11.40;75.70
61761;BME280;47664;51.660;-0.100;2022-10-24T04:21:18;99107.91;;;11.81;74.25
61761;BME280;47664;51.660;-0.100;2022-10-24T04:23:50;99117.43;;;11.49;74.78
61761;BME280;47664;51.660;-0.100;2022-10-24T04:26:23;99131.55;;;11.57;75.89
61761;BME280;47664;51.660;-0.100;2022-10-24T04:28:56;99132.78;;;11.48;75.36
61761;BME280;47664;51.660;-0.100;2022-10-24T04:31:33;99139.80;;;11.71;74.77
61761;BME280;47664;51.660;-0.100;2022-10-24T04:34:06;99141.45;;;11.95;74.17
61761;BME280;47664;51.660;-0.100;2022-10-24T04:36:38;99146.92;;;11.71;74.34
61761;BME280;47664;51.660;-0.100;2022-10-24T04:39:11;99149.15;;;11.63;74.67
61761;BME280;47664;51.660;-0.100;2022-10-24T04:41:43;99150.06;;;12.26;73.55
61761;BME280;47664;51.660;-0.100;2022-10-24T04:44:15;99159.57;;;11.71;74.23
61761;BME280;47664;51.660;-0.100;2022-10-24T04:46:48;99173.39;;;11.46;75.03
61761;BME280;47664;51.660;-0.100;2022-10-24T04:49:20;99174.85;;;11.73;74.47
61761;BME280;47664;51.660;-0.100;2022-10-24T04:51:53;99188.26;;;11.35;74.81
61761;BME280;47664;51.660;-0.100;2022-10-24T04:54:25;99190.28;;;11.85;74.10
61761;BME280;47664;51.660;-0.100;2022-10-24T04:56:57;99196.79;;;11.45;74.70
61761;BME280;47664;51.660;-0.100;2022-10-24T04:59:29;99205.21;;;11.59;74.42
61761;BME280;47664;51.660;-0.100;2022-10-24T05:02:01;99203.81;;;11.07;75.38
61761;BME280;47664;51.660;-0.100;2022-10-24T05:04:33;99210.67;;;11.12;75.55
61761;BME280;47664;51.660;-0.100;2022-10-24T05:07:05;99216.75;;;11.58;74.36
61761;BME280;47664;51.660;-0.100;2022-10-24T05:09:38;99222.38;;;11.67;73.84
61761;BME280;47664;51.660;-0.100;2022-10-24T05:12:10;99225.05;;;11.33;74.36
61761;BME280;47664;51.660;-0.100;2022-10-24T05:14:42;99233.72;;;11.52;73.48
61761;BME280;47664;51.660;-0.100;2022-10-24T05:17:14;99234.43;;;11.54;73.51
61761;BME280;47664;51.660;-0.100;2022-10-24T05:19:46;99243.93;;;11.93;72.82
61761;BME280;47664;51.660;-0.100;2022-10-24T05:22:18;99252.21;;;11.50;72.60
61761;BME280;47664;51.660;-0.100;2022-10-24T05:24:50;99255.62;;;11.51;73.55
61761;BME280;47664;51.660;-0.100;2022-10-24T05:27:22;99266.97;;;11.46;73.00
61761;BME280;47664;51.660;-0.100;2022-10-24T05:29:55;99270.89;;;11.54;73.24
61761;BME280;47664;51.660;-0.100;2022-10-24T05:32:28;99272.62;;;11.15;73.63
61761;BME280;47664;51.660;-0.100;2022-10-24T05:35:01;99281.36;;;11.76;72.02
61761;BME280;47664;51.660;-0.100;2022-10-24T05:37:34;99285.07;;;11.65;72.52
61761;BME280;47664;51.660;-0.100;2022-10-24T05:40:07;99291.89;;;11.69;71.58
61761;BME280;47664;51.660;-0.100;2022-10-24T05:42:39;99295.84;;;11.47;71.47
61761;BME280;47664;51.660;-0.100;2022-10-24T05:45:12;99299.00;;;11.80;71.85
61761;BME280;47664;51.660;-0.100;2022-10-24T05:47:44;99302.59;;;11.81;72.45
61761;BME280;47664;51.660;-0.100;2022-10-24T05:50:16;99306.97;;;11.72;71.25
61761;BME280;47664;51.660;-0.100;2022-10-24T05:52:48;99307.15;;;11.62;71.91
61761;BME280;47664;51.660;-0.100;2022-10-24T05:55:20;99308.21;;;11.39;72.05
61761;BME280;47664;51.660;-0.100;2022-10-24T05:57:52;99315.32;;;11.16;72.66
61761;BME280;47664;51.660;-0.100;2022-10-24T06:00:24;99322.00;;;11.79;71.77
61761;BME280;47664;51.660;-0.100;2022-10-24T06:02:57;99324.98;;;11.84;71.02
61761;BME280;47664;51.660;-0.100;2022-10-24T06:05:30;99327.65;;;11.57;71.19
61761;BME280;47664;51.660;-0.100;2022-10-24T06:08:03;99334.81;;;11.76;70.00
61761;BME280;47664;51.660;-0.100;2022-10-24T06:10:35;99338.95;;;11.87;71.57
61761;BME280;47664;51.660;-0.100;2022-10-24T06:13:07;99344.95;;;11.24;71.79
61761;BME280;47664;51.660;-0.100;2022-10-24T06:15:40;99347.66;;;11.59;71.11
61761;BME280;47664;51.660;-0.100;2022-10-24T06:18:12;99356.53;;;11.28;70.88
61761;BME280;47664;51.660;-0.100;2022-10-24T06:20:44;99359.66;;;11.97;70.07
61761;BME280;47664;51.660;-0.100;2022-10-24T06:23:16;99359.16;;;11.78;70.05
61761;BME280;47664;51.660;-0.100;2022-10-24T06:25:48;99363.87;;;11.72;70.60
61761;BME280;47664;51.660;-0.100;2022-10-24T06:28:21;99364.85;;;11.39;70.76
61761;BME280;47664;51.660;-0.100;2022-10-24T06:30:53;99372.14;;;11.53;72.27
61761;BME280;47664;51.660;-0.100;2022-10-24T06:33:26;99375.76;;;10.94;73.05
61761;BME280;47664;51.660;-0.100;2022-10-24T06:35:58;99381.13;;;11.16;72.68
61761;BME280;47664;51.660;-0.100;2022-10-24T06:38:30;99378.93;;;11.29;72.19
61761;BME280;47664;51.660;-0.100;2022-10-24T06:41:04;99380.18;;;11.02;71.72
61761;BME280;47664;51.660;-0.100;2022-10-24T06:43:36;99381.22;;;11.35;71.95
61761;BME280;47664;51.660;-0.100;2022-10-24T06:46:12;99389.54;;;11.01;71.85
61761;BME280;47664;51.660;-0.100;2022-10-24T06:48:45;99391.94;;;11.16;71.60
61761;BME280;47664;51.660;-0.100;2022-10-24T06:51:18;99401.22;;;11.69;71.11
61761;BME280;47664;51.660;-0.100;2022-10-24T06:53:51;99404.32;;;11.27;71.49
61761;BME280;47664;51.660;-0.100;2022-10-24T06:56:24;99404.62;;;11.33;70.78
61761;BME280;47664;51.660;-0.100;2022-10-24T06:58:56;99411.19;;;10.79;71.73
61761;BME280;47664;51.660;-0.100;2022-10-24T07:01:28;99418.90;;;11.71;70.19
61761;BME280;47664;51.660;-0.100;2022-10-24T07:04:01;99420.78;;;11.39;71.12
61761;BME280;47664;51.660;-0.100;2022-10-24T07:06:34;99430.01;;;11.06;72.25
61761;BME280;47664;51.660;-0.100;2022-10-24T07:09:09;99437.88;;;11.47;71.43
61761;BME280;47664;51.660;-0.100;2022-10-24T07:11:42;99446.21;;;11.39;71.96
61761;BME280;47664;51.660;-0.100;2022-10-24T07:14:15;99450.49;;;11.16;71.62
61761;BME280;47664;51.660;-0.100;2022-10-24T07:16:47;99454.76;;;11.08;71.97
61761;BME280;47664;51.660;-0.100;2022-10-24T07:19:19;99459.18;;;11.28;71.82
61761;BME280;47664;51.660;-0.100;2022-10-24T07:21:51;99460.25;;;11.09;71.71
61761;BME280;47664;51.660;-0.100;2022-10-24T07:24:23;99459.29;;;11.59;70.15
61761;BME280;47664;51.660;-0.100;2022-10-24T07:26:56;99465.70;;;11.83;70.84
61761;BME280;47664;51.660;-0.100;2022-10-24T07:29:28;99467.92;;;11.82;69.97
61761;BME280;47664;51.660;-0.100;2022-10-24T07:32:00;99474.11;;;11.58;70.91
61761;BME280;47664;51.660;-0.100;2022-10-24T07:34:32;99478.94;;;11.56;71.07
61761;BME280;47664;51.660;-0.100;2022-10-24T07:37:04;99489.05;;;11.62;70.05
61761;BME280;47664;51.660;-0.100;2022-10-24T07:39:36;99492.24;;;11.87;69.53
61761;BME280;47664;51.660;-0.100;2022-10-24T07:42:09;99498.38;;;11.58;70.23
61761;BME280;47664;51.660;-0.100;2022-10-24T07:44:42;99500.93;;;11.68;69.99
61761;BME280;47664;51.660;-0.100;2022-10-24T07:47:14;99508.16;;;11.88;69.57
61761;BME280;47664;51.660;-0.100;2022-10-24T07:49:46;99514.27;;;11.87;68.84
61761;BME280;47664;51.660;-0.100;2022-10-24T07:52:18;99521.26;;;11.85;69.96
61761;BME280;47664;51.660;-0.100;2022-10-24T07:54:51;99523.14;;;12.16;69.12
61761;BME280;47664;51.660;-0.100;2022-10-24T07:57:24;99522.31;;;12.55;68.14
61761;BME280;47664;51.660;-0.100;2022-10-24T07:59:56;99529.18;;;11.94;69.01
61761;BME280;47664;51.660;-0.100;2022-10-24T08:02:28;99534.59;;;12.17;68.61
61761;BME280;47664;51.660;-0.100;2022-10-24T08:05:00;99538.13;;;11.88;69.37
61761;BME280;47664;51.660;-0.100;2022-10-24T08:07:33;99544.75;;;11.59;70.14
61761;BME280;47664;51.660;-0.100;2022-10-24T08:10:05;99546.24;;;11.62;70.25
61761;BME280;47664;51.660;-0.100;2022-10-24T08:12:38;99549.46;;;12.19;70.35
61761;BME280;47664;51.660;-0.100;2022-10-24T08:15:11;99550.21;;;12.45;67.85
61761;BME280;47664;51.660;-0.100;2022-10-24T08:17:42;99558.13;;;12.51;67.94
61761;BME280;47664;51.660;-0.100;2022-10-24T08:20:15;99561.36;;;11.94;69.49
61761;BME280;47664;51.660;-0.100;2022-10-24T08:22:48;99569.65;;;12.11;68.23
61761;BME280;47664;51.660;-0.100;2022-10-24T08:25:20;99571.47;;;11.90;68.93
61761;BME280;47664;51.660;-0.100;2022-10-24T08:27:53;99574.44;;;12.03;68.36
61761;BME280;47664;51.660;-0.100;2022-10-24T08:30:25;99578.32;;;11.98;69.16
61761;BME280;47664;51.660;-0.100;2022-10-24T08:32:57;99576.41;;;11.99;68.51
61761;BME280;47664;51.660;-0.100;2022-10-24T08:35:29;99574.75;;;12.37;68.70
61761;BME280;47664;51.660;-0.100;2022-10-24T08:38:01;99576.93;;;12.34;69.05
61761;BME280;47664;51.660;-0.100;2022-10-24T08:40:33;99579.27;;;11.89;68.83
61761;BME280;47664;51.660;-0.100;2022-10-24T08:43:06;99587.73;;;12.26;68.71
61761;BME280;47664;51.660;-0.100;2022-10-24T08:45:37;99589.54;;;12.81;67.06
61761;BME280;47664;51.660;-0.100;2022-10-24T08:48:08;99594.76;;;12.36;68.06
61761;BME280;47664;51.660;-0.100;2022-10-24T08:50:42;99597.36;;;13.03;66.50
61761;BME280;47664;51.660;-0.100;2022-10-24T08:53:20;99597.28;;;12.61;67.52
61761;BME280;47664;51.660;-0.100;2022-10-24T08:55:56;99597.55;;;12.03;68.29
61761;BME280;47664;51.660;-0.100;2022-10-24T08:58:33;99600.11;;;12.23;69.13
61761;BME280;47664;51.660;-0.100;2022-10-24T09:01:12;99600.95;;;12.40;68.15
61761;BME280;47664;51.660;-0.100;2022-10-24T09:03:48;99603.42;;;12.49;68.72
61761;BME280;47664;51.660;-0.100;2022-10-24T09:06:24;99608.72;;;12.73;66.69
61761;BME280;47664;51.660;-0.100;2022-10-24T09:08:58;99613.39;;;13.15;65.91
61761;BME280;47664;51.660;-0.100;2022-10-24T09:11:35;99619.00;;;13.52;65.95
61761;BME280;47664;51.660;-0.100;2022-10-24T09:14:12;99622.34;;;13.71;64.59
61761;BME280;47664;51.660;-0.100;2022-10-24T09:16:47;99632.90;;;13.45;65.66
61761;BME280;47664;51.660;-0.100;2022-10-24T09:19:20;99636.71;;;12.97;66.43
61761;BME280;47664;51.660;-0.100;2022-10-24T09:21:54;99641.19;;;12.68;67.11
61761;BME280;47664;51.660;-0.100;2022-10-24T09:24:28;99643.52;;;12.31;68.18
61761;BME280;47664;51.660;-0.100;2022-10-24T09:27:04;99648.64;;;12.16;67.86
61761;BME280;47664;51.660;-0.100;2022-10-24T09:29:38;99647.99;;;12.43;67.81
61761;BME280;47664;51.660;-0.100;2022-10-24T09:32:14;99654.44;;;12.56;67.26
61761;BME280;47664;51.660;-0.100;2022-10-24T09:34:47;99670.64;;;12.73;67.11
61761;BME280;47664;51.660;-0.100;2022-10-24T09:37:35;99672.21;;;12.60;67.52
61761;BME280;47664;51.660;-0.100;2022-10-24T09:40:07;99669.21;;;12.45;67.60
61761;BME280;47664;51.660;-0.100;2022-10-24T09:42:46;99673.89;;;12.69;66.84
61761;BME280;47664;51.660;-0.100;2022-10-24T09:45:34;99675.44;;;13.06;66.32
61761;BME280;47664;51.660;-0.100;2022-10-24T09:48:14;99682.69;;;13.17;65.78
61761;BME280;47664;51.660;-0.100;2022-10-24T09:50:48;99687.13;;;13.08;65.73
61761;BME280;47664;51.660;-0.100;2022-10-24T09:53:23;99687.00;;;13.16;65.47
61761;BME280;47664;51.660;-0.100;2022-10-24T09:55:56;99685.86;;;13.10;65.50
61761;BME280;47664;51.660;-0.100;2022-10-24T09:58:31;99687.47;;;13.16;65.34
61761;BME280;47664;51.660;-0.100;2022-10-24T10:01:06;99692.09;;;13.11;65.30
61761;BME280;47664;51.660;-0.100;2022-10-24T10:03:39;99696.59;;;13.12;65.57
61761;BME280;47664;51.660;-0.100;2022-10-24T10:06:15;99693.16;;;13.62;64.88
61761;BME280;47664;51.660;-0.100;2022-10-24T10:08:49;99692.74;;;13.52;63.67
61761;BME280;47664;51.660;-0.100;2022-10-24T10:11:24;99698.42;;;13.65;64.24
61761;BME280;47664;51.660;-0.100;2022-10-24T10:13:57;99699.77;;;13.46;64.00
61761;BME280;47664;51.660;-0.100;2022-10-24T10:16:31;99701.60;;;13.16;64.31
61761;BME280;47664;51.660;-0.100;2022-10-24T10:19:03;99703.92;;;13.61;64.43
61761;BME280;47664;51.660;-0.100;2022-10-24T10:21:53;99714.93;;;13.18;64.35
61761;BME280;47664;51.660;-0.100;2022-10-24T10:24:25;99709.19;;;13.62;64.11
61761;BME280;47664;51.660;-0.100;2022-10-24T10:26:57;99714.72;;;13.32;64.15
61761;BME280;47664;51.660;-0.100;2022-10-24T10:29:29;99722.98;;;13.16;64.65
61761;BME280;47664;51.660;-0.100;2022-10-24T10:32:05;99723.15;;;12.99;64.55
61761;BME280;47664;51.660;-0.100;2022-10-24T10:34:38;99722.01;;;13.46;63.25
61761;BME280;47664;51.660;-0.100;2022-10-24T10:37:22;99723.78;;;13.98;63.91
61761;BME280;47664;51.660;-0.100;2022-10-24T10:40:00;99722.90;;;14.43;62.19
61761;BME280;47664;51.660;-0.100;2022-10-24T10:42:35;99723.24;;;14.25;60.99
61761;BME280;47664;51.660;-0.100;2022-10-24T10:45:15;99724.91;;;13.86;61.52
61761;BME280;47664;51.660;-0.100;2022-10-24T10:47:55;99724.84;;;13.76;61.57
61761;BME280;47664;51.660;-0.100;2022-10-24T10:50:34;99732.28;;;14.08;61.70
61761;BME280;47664;51.660;-0.100;2022-10-24T10:53:16;99731.75;;;13.87;60.73
61761;BME280;47664;51.660;-0.100;2022-10-24T10:55:52;99734.48;;;13.80;61.03
61761;BME280;47664;51.660;-0.100;2022-10-24T10:58:29;99735.46;;;13.49;63.20
61761;BME280;47664;51.660;-0.100;2022-10-24T11:01:10;99740.91;;;13.78;62.10
61761;BME280;47664;51.660;-0.100;2022-10-24T11:03:44;99735.34;;;13.89;61.50
61761;BME280;47664;51.660;-0.100;2022-10-24T11:06:24;99740.21;;;14.00;61.12
61761;BME280;47664;51.660;-0.100;2022-10-24T11:09:09;99738.73;;;13.63;60.67
61761;BME280;47664;51.660;-0.100;2022-10-24T11:11:47;99742.00;;;14.02;60.52
61761;BME280;47664;51.660;-0.100;2022-10-24T11:14:27;99742.68;;;13.77;60.10
61761;BME280;47664;51.660;-0.100;2022-10-24T11:17:05;99746.26;;;14.20;58.64
61761;BME280;47664;51.660;-0.100;2022-10-24T11:19:44;99740.37;;;13.93;60.74
61761;BME280;47664;51.660;-0.100;2022-10-24T11:22:18;99740.93;;;14.51;58.57
61761;BME280;47664;51.660;-0.100;2022-10-24T11:24:53;99739.26;;;14.32;58.19
61761;BME280;47664;51.660;-0.100;2022-10-24T11:27:27;99742.41;;;14.34;59.91
61761;BME280;47664;51.660;-0.100;2022-10-24T11:30:03;99738.62;;;13.90;60.10
61761;BME280;47664;51.660;-0.100;2022-10-24T11:32:39;99739.49;;;14.32;58.08
61761;BME280;47664;51.660;-0.100;2022-10-24T11:35:20;99742.50;;;14.18;58.20
61761;BME280;47664;51.660;-0.100;2022-10-24T11:37:53;99746.32;;;14.53;57.41
61761;BME280;47664;51.660;-0.100;2022-10-24T11:40:29;99744.09;;;14.00;58.00
61761;BME280;47664;51.660;-0.100;2022-10-24T11:43:03;99743.03;;;13.86;58.83
61761;BME280;47664;51.660;-0.100;2022-10-24T11:45:39;99745.32;;;14.34;57.06
61761;BME280;47664;51.660;-0.100;2022-10-24T11:48:13;99750.13;;;14.28;56.74
61761;BME280;47664;51.660;-0.100;2022-10-24T11:50:48;99754.39;;;14.43;57.05
61761;BME280;47664;51.660;-0.100;2022-10-24T11:53:36;99750.97;;;14.71;56.44
61761;BME280;47664;51.660;-0.100;2022-10-24T11:56:11;99752.01;;;14.45;56.62
61761;BME280;47664;51.660;-0.100;2022-10-24T11:58:48;99763.10;;;14.32;56.73
61761;BME280;47664;51.660;-0.100;2022-10-24T12:01:37;99765.32;;;13.94;57.99
61761;BME280;47664;51.660;-0.100;2022-10-24T12:04:23;99768.26;;;14.18;59.05
61761;BME280;47664;51.660;-0.100;2022-10-24T12:07:13;99772.46;;;14.16;59.15
61761;BME280;47664;51.660;-0.100;2022-10-24T12:09:59;99769.31;;;14.17;59.73
61761;BME280;47664;51.660;-0.100;2022-10-24T12:12:47;99770.55;;;14.20;58.60
61761;BME280;47664;51.660;-0.100;2022-10-24T12:15:28;99774.27;;;13.97;59.48
61761;BME280;47664;51.660;-0.100;2022-10-24T12:18:06;99779.63;;;13.96;60.29
61761;BME280;47664;51.660;-0.100;2022-10-24T12:20:40;99778.87;;;13.90;59.92
61761;BME280;47664;51.660;-0.100;2022-10-24T12:23:19;99776.92;;;14.10;60.27
61761;BME280;47664;51.660;-0.100;2022-10-24T12:26:02;99782.40;;;14.23;60.80
61761;BME280;47664;51.660;-0.100;2022-10-24T12:28:35;99773.60;;;14.43;61.26
61761;BME280;47664;51.660;-0.100;2022-10-24T12:31:19;99776.90;;;14.37;60.75
61761;BME280;47664;51.660;-0.100;2022-10-24T12:34:36;99780.84;;;14.18;59.45
61761;BME280;47664;51.660;-0.100;2022-10-24T12:37:11;99780.82;;;14.59;59.85
61761;BME280;47664;51.660;-0.100;2022-10-24T12:39:55;99780.86;;;14.39;59.76
61761;BME280;47664;51.660;-0.100;2022-10-24T12:43:13;99779.75;;;14.83;58.53
61761;BME280;47664;51.660;-0.100;2022-10-24T12:45:45;99776.45;;;14.84;58.92
61761;BME280;47664;51.660;-0.100;2022-10-24T12:48:35;99771.88;;;14.68;60.10
61761;BME280;47664;51.660;-0.100;2022-10-24T12:51:26;99770.44;;;14.67;60.30
61761;BME280;47664;51.660;-0.100;2022-10-24T12:54:04;99769.14;;;14.80;59.15
61761;BME280;47664;51.660;-0.100;2022-10-24T12:57:22;99771.09;;;14.68;58.84
61761;BME280;47664;51.660;-0.100;2022-10-24T12:59:56;99763.40;;;15.13;60.01
61761;BME280;47664;51.660;-0.100;2022-10-24T13:02:36;99762.63;;;15.13;59.39
61761;BME280;47664;51.660;-0.100;2022-10-24T13:05:17;99760.58;;;15.01;59.61
61761;BME280;47664;51.660;-0.100;2022-10-24T13:08:06;99752.74;;;15.07;58.77
61761;BME280;47664;51.660;-0.100;2022-10-24T13:10:47;99757.69;;;15.03;58.38
61761;BME280;47664;51.660;-0.100;2022-10-24T13:13:35;99752.54;;;15.13;58.65
61761;BME280;47664;51.660;-0.100;2022-10-24T13:16:15;99755.56;;;15.21;58.08
61761;BME280;47664;51.660;-0.100;2022-10-24T13:18:55;99766.02;;;15.27;59.43
61761;BME280;47664;51.660;-0.100;2022-10-24T13:21:33;99765.40;;;14.92;59.53
61761;BME280;47664;51.660;-0.100;2022-10-24T13:24:33;99761.17;;;14.95;59.08
61761;BME280;47664;51.660;-0.100;2022-10-24T13:27:40;99759.04;;;15.22;58.42
61761;BME280;47664;51.660;-0.100;2022-10-24T13:30:24;99758.96;;;15.42;58.48
61761;BME280;47664;51.660;-0.100;2022-10-24T13:33:38;99761.79;;;15.29;58.76